Fairfield, Florida
Current Conditions -  °F | °C
As of 11:50 AM on Friday 24 Oct 2014 (Local Time) from KOCF Reporting Station
Few Clouds Few Clouds  
Wind Chill: 73°   Ceiling: Unl
Heat Index: 73°   Visibility: 10mi
Dew Point: 54°   Wind: 8mph
Humidity: 50%   Direction: 10°N
Pressure: 30.04"   Gusts: NA
Location:  29.37°N, 82.25°W
Report Text: KOCF 241550Z 01007KT 10SM FEW030 23/12 A3004
Loading
Personal Weather Stations






























Interactive Weather Map
Tropical Storm Tracking
New forecast layout! Learn more

10-Day Weather Forecast

Advertisements
Track Severe Weather on mobile